Time;durP1;ratioP1;P1;durP2;ratioP2;P2;SDS_P1;SDS_P2;PMS_P1;PMS_P2;Temp;Humidity;BMP_temperature;BMP_pressure;BME280_temperature;BME280_humidity;BME280_pressure;Samples;Min_cycle;Max_cycle;Signal;HPM_P1;HPM_P2
2021/09/06 00:00:24;;;;;;;5.17;4.70;;;14.40;99.90;;;;;;5053529;28;20435;-67
2021/09/06 00:02:55;;;;;;;3.60;3.30;;;14.40;99.90;;;;;;5062615;28;20468;-68
2021/09/06 00:05:24;;;;;;;4.73;4.17;;;14.40;99.90;;;;;;5057464;28;20435;-68
2021/09/06 00:07:52;;;;;;;5.90;5.40;;;14.30;99.90;;;;;;5052956;28;20446;-68
2021/09/06 00:11:03;;;;;;;4.53;4.13;;;14.20;99.90;;;;;;5054047;28;20430;-67
2021/09/06 00:13:39;;;;;;;4.83;4.20;;;14.20;99.90;;;;;;5025820;28;20426;-69
2021/09/06 00:16:07;;;;;;;4.67;4.20;;;14.20;99.90;;;;;;5054225;28;20451;-67
2021/09/06 00:18:33;;;;;;;5.73;3.90;;;14.10;99.90;;;;;;5053201;28;20446;-69
2021/09/06 00:21:01;;;;;;;5.70;4.53;;;14.10;99.90;;;;;;5053565;28;20765;-69
2021/09/06 00:23:30;;;;;;;4.93;4.53;;;14.10;99.90;;;;;;5053351;28;20422;-68
2021/09/06 00:25:56;;;;;;;5.60;4.60;;;14.10;99.90;;;;;;5053438;28;20757;-67
2021/09/06 00:28:21;;;;;;;6.07;4.73;;;14.00;99.90;;;;;;5052673;28;20453;-66
2021/09/06 00:30:47;;;;;;;4.93;4.50;;;14.00;99.90;;;;;;5053333;28;20176;-68
2021/09/06 00:33:13;;;;;;;5.90;4.77;;;14.00;99.90;;;;;;5071142;28;20536;-67
2021/09/06 00:35:39;;;;;;;7.00;5.00;;;13.90;99.90;;;;;;5073140;28;20250;-68
2021/09/06 00:38:05;;;;;;;3.90;3.63;;;14.00;99.90;;;;;;5072709;28;20649;-68
2021/09/06 00:40:30;;;;;;;6.20;4.40;;;13.90;99.90;;;;;;5073343;28;20954;-68
2021/09/06 00:42:56;;;;;;;6.10;4.50;;;13.90;99.90;;;;;;5073261;28;20405;-68
2021/09/06 00:45:23;;;;;;;4.40;4.00;;;13.90;99.90;;;;;;5073230;28;20250;-68
2021/09/06 00:47:49;;;;;;;5.40;4.50;;;13.90;99.90;;;;;;5072345;28;20457;-68
2021/09/06 00:50:16;;;;;;;5.53;4.33;;;13.80;99.90;;;;;;5071663;28;20523;-66
2021/09/06 00:52:46;;;;;;;3.40;3.10;;;13.90;99.90;;;;;;5073058;28;20772;-68
2021/09/06 00:55:15;;;;;;;5.03;3.97;;;13.90;99.90;;;;;;5073173;28;20406;-67
2021/09/06 00:57:41;;;;;;;4.70;4.40;;;13.80;99.90;;;;;;5072499;28;20513;-69
2021/09/06 01:00:08;;;;;;;4.53;3.93;;;13.80;99.90;;;;;;5065210;28;20491;-67
2021/09/06 01:02:34;;;;;;;5.33;4.23;;;13.80;99.90;;;;;;5052904;28;20170;-70
2021/09/06 01:05:00;;;;;;;4.90;3.90;;;13.80;99.90;;;;;;5052936;28;20405;-68
2021/09/06 01:07:26;;;;;;;6.33;4.03;;;13.70;99.90;;;;;;5052354;28;20445;-69
2021/09/06 01:09:52;;;;;;;4.83;4.43;;;13.60;99.90;;;;;;5052729;28;20429;-67
2021/09/06 01:12:17;;;;;;;7.63;4.97;;;13.60;99.90;;;;;;5052714;28;20406;-68
2021/09/06 01:14:43;;;;;;;7.93;4.40;;;13.60;99.90;;;;;;5053121;28;20199;-69
2021/09/06 01:17:09;;;;;;;5.27;4.70;;;13.60;99.90;;;;;;5052549;28;20229;-70
2021/09/06 01:19:35;;;;;;;5.00;4.50;;;13.50;99.90;;;;;;5057859;28;20276;-68
2021/09/06 01:22:00;;;;;;;4.00;3.63;;;13.50;99.90;;;;;;5076621;28;20339;-68
2021/09/06 01:24:26;;;;;;;4.17;3.77;;;13.50;99.90;;;;;;5076681;28;20450;-68
2021/09/06 01:26:52;;;;;;;5.37;4.97;;;13.50;99.90;;;;;;5076112;28;20483;-68
2021/09/06 01:29:18;;;;;;;5.17;4.40;;;13.40;99.90;;;;;;5074990;28;20444;-68
2021/09/06 01:31:44;;;;;;;4.90;4.40;;;13.50;99.90;;;;;;5076403;28;20403;-67
2021/09/06 01:34:11;;;;;;;4.90;4.40;;;13.50;99.90;;;;;;5076236;28;20450;-69
2021/09/06 01:36:37;;;;;;;6.13;4.43;;;13.50;99.90;;;;;;5076054;28;20178;-67
2021/09/06 01:39:05;;;;;;;4.97;4.47;;;13.40;99.90;;;;;;5076390;28;20533;-68
2021/09/06 01:41:32;;;;;;;5.23;4.00;;;13.40;99.90;;;;;;5076444;28;20893;-66
2021/09/06 01:43:57;;;;;;;4.67;4.27;;;13.40;99.90;;;;;;5076086;28;20407;-67
2021/09/06 01:46:33;;;;;;;4.47;4.07;;;13.30;99.90;;;;;;5076147;28;20491;-66
2021/09/06 01:48:58;;;;;;;5.13;4.63;;;13.30;99.90;;;;;;5060556;28;20289;-67
2021/09/06 01:51:25;;;;;;;5.67;4.67;;;13.20;99.90;;;;;;5054874;28;20577;-69
2021/09/06 01:53:52;;;;;;;5.07;4.57;;;13.20;99.90;;;;;;5056178;28;20404;-68
2021/09/06 01:56:17;;;;;;;6.23;4.90;;;13.10;99.90;;;;;;5055965;28;20170;-68
2021/09/06 01:58:43;;;;;;;4.10;3.70;;;13.10;99.90;;;;;;5055551;28;20429;-68
2021/09/06 02:01:09;;;;;;;5.03;4.60;;;13.10;99.90;;;;;;5056142;28;20323;-68
2021/09/06 02:03:35;;;;;;;4.03;3.63;;;13.10;99.90;;;;;;5056909;28;20422;-69
2021/09/06 02:06:01;;;;;;;4.57;4.07;;;13.00;99.90;;;;;;5068325;28;20310;-68
2021/09/06 02:08:26;;;;;;;4.80;4.23;;;13.00;99.90;;;;;;5073905;28;20233;-67
2021/09/06 02:10:54;;;;;;;4.87;4.47;;;12.90;99.90;;;;;;5075626;28;20164;-68
2021/09/06 02:13:20;;;;;;;5.20;4.55;;;12.90;99.90;;;;;;5075497;28;20189;-67
2021/09/06 02:15:45;;;;;;;5.40;4.90;;;12.90;99.90;;;;;;5075634;28;20169;-69
2021/09/06 02:18:11;;;;;;;5.30;4.90;;;12.90;99.90;;;;;;5060883;28;20510;-67
2021/09/06 02:20:37;;;;;;;5.73;5.00;;;12.80;99.90;;;;;;5055553;28;20683;-69
2021/09/06 02:23:02;;;;;;;6.17;4.40;;;12.70;99.90;;;;;;5055529;28;20177;-68
2021/09/06 02:25:28;;;;;;;4.97;4.00;;;12.70;99.90;;;;;;5055404;28;20672;-67
2021/09/06 02:27:54;;;;;;;6.20;5.00;;;12.70;99.90;;;;;;5053627;28;20550;-68
2021/09/06 02:30:19;;;;;;;6.37;4.23;;;12.70;99.90;;;;;;5055450;28;20691;-69
2021/09/06 02:32:45;;;;;;;4.80;4.30;;;12.70;99.90;;;;;;5056085;28;20206;-68
2021/09/06 02:35:11;;;;;;;5.63;5.10;;;12.80;99.90;;;;;;5055189;28;20400;-69
2021/09/06 02:37:37;;;;;;;4.73;4.20;;;12.80;99.90;;;;;;5053505;28;20196;-68
2021/09/06 02:40:03;;;;;;;5.20;4.50;;;12.70;99.90;;;;;;5054989;28;20190;-68
2021/09/06 02:42:29;;;;;;;4.72;4.28;;;12.80;99.90;;;;;;5055019;28;20166;-69
2021/09/06 02:44:54;;;;;;;5.80;5.30;;;12.70;99.90;;;;;;5055246;28;20532;-67
2021/09/06 02:47:20;;;;;;;8.90;5.77;;;12.70;99.90;;;;;;5054734;28;20170;-67
2021/09/06 02:49:49;;;;;;;6.33;4.53;;;12.60;99.90;;;;;;5054834;28;20186;-67
2021/09/06 02:52:14;;;;;;;4.93;4.40;;;12.60;99.90;;;;;;5054830;28;20252;-68
2021/09/06 02:54:40;;;;;;;4.77;4.27;;;12.60;99.90;;;;;;5055570;28;20677;-66
2021/09/06 02:57:06;;;;;;;5.97;5.37;;;12.60;99.90;;;;;;5054436;28;20194;-66
2021/09/06 02:59:31;;;;;;;6.70;5.17;;;12.60;99.90;;;;;;5054878;28;20198;-67
2021/09/06 03:01:57;;;;;;;5.13;3.80;;;12.60;99.90;;;;;;5054796;28;20232;-67
2021/09/06 03:04:23;;;;;;;4.47;4.07;;;12.60;99.90;;;;;;5054864;28;20675;-66
2021/09/06 03:06:49;;;;;;;6.00;4.90;;;12.60;99.90;;;;;;5054944;28;20632;-67
2021/09/06 03:09:14;;;;;;;4.37;3.97;;;12.50;99.90;;;;;;5054482;28;20201;-66
2021/09/06 03:11:40;;;;;;;5.73;4.70;;;12.50;99.90;;;;;;5054516;28;20464;-67
2021/09/06 03:14:06;;;;;;;4.10;3.70;;;12.40;99.90;;;;;;5054636;28;20178;-69
2021/09/06 03:16:31;;;;;;;5.57;4.60;;;12.40;99.90;;;;;;5070700;28;20202;-68
2021/09/06 03:18:57;;;;;;;4.97;4.47;;;12.50;99.90;;;;;;5074321;28;20201;-68
2021/09/06 03:21:23;;;;;;;5.10;4.70;;;12.40;99.90;;;;;;5074549;28;20251;-66
2021/09/06 03:23:49;;;;;;;4.80;4.30;;;12.40;99.90;;;;;;5074131;28;20468;-68
2021/09/06 03:26:14;;;;;;;4.13;3.77;;;12.30;99.90;;;;;;5074130;28;20170;-66
2021/09/06 03:28:41;;;;;;;7.43;6.13;;;12.30;99.90;;;;;;5073672;28;20231;-67
2021/09/06 03:31:07;;;;;;;5.28;4.70;;;12.30;99.90;;;;;;5073949;28;20182;-68
2021/09/06 03:33:33;;;;;;;14.83;5.73;;;12.30;99.90;;;;;;5074157;28;20165;-67
2021/09/06 03:35:58;;;;;;;5.00;4.37;;;12.30;99.90;;;;;;5074222;28;20770;-68
2021/09/06 03:38:24;;;;;;;5.80;5.30;;;12.20;99.90;;;;;;5071371;28;20216;-67
2021/09/06 03:40:50;;;;;;;6.87;5.67;;;12.20;99.90;;;;;;5054060;28;20189;-67
2021/09/06 03:43:15;;;;;;;4.57;4.17;;;12.20;99.90;;;;;;5053292;28;20170;-66
2021/09/06 03:45:41;;;;;;;8.07;6.20;;;12.20;99.90;;;;;;5053991;28;20185;-68
2021/09/06 03:48:07;;;;;;;5.30;4.80;;;12.10;99.90;;;;;;5053806;28;20232;-67
2021/09/06 03:50:32;;;;;;;10.13;6.33;;;12.10;99.90;;;;;;5052602;28;20171;-67
2021/09/06 03:52:58;;;;;;;5.27;4.77;;;12.10;99.90;;;;;;5053881;28;20165;-67
2021/09/06 03:55:24;;;;;;;7.07;4.73;;;12.10;99.90;;;;;;5053774;28;20576;-68
2021/09/06 03:57:49;;;;;;;4.50;4.10;;;12.10;99.90;;;;;;5053323;28;20165;-66
2021/09/06 04:00:15;;;;;;;4.70;4.20;;;12.10;99.90;;;;;;5053450;28;20189;-67
2021/09/06 04:02:41;;;;;;;5.30;4.80;;;12.10;99.90;;;;;;5053782;28;20645;-67
2021/09/06 04:05:07;;;;;;;8.63;5.17;;;12.10;99.90;;;;;;5053651;28;20226;-67
2021/09/06 04:07:32;;;;;;;5.60;5.03;;;12.00;99.90;;;;;;5061591;28;20205;-66
2021/09/06 04:09:58;;;;;;;5.80;4.60;;;12.00;99.90;;;;;;5073542;28;20572;-66
2021/09/06 04:12:24;;;;;;;5.37;4.87;;;12.00;99.90;;;;;;5072158;28;20173;-69
2021/09/06 04:14:51;;;;;;;5.13;4.50;;;12.00;99.90;;;;;;5072048;28;20181;-67
2021/09/06 04:17:16;;;;;;;5.05;4.65;;;11.90;99.90;;;;;;5073035;28;20162;-67
2021/09/06 04:19:42;;;;;;;5.53;5.03;;;11.90;99.90;;;;;;5073203;28;20246;-66
2021/09/06 04:22:08;;;;;;;5.63;4.07;;;11.90;99.90;;;;;;5065510;28;20177;-68
2021/09/06 04:24:33;;;;;;;6.30;5.30;;;11.90;99.90;;;;;;5053355;28;20177;-67
2021/09/06 04:26:59;;;;;;;4.63;4.17;;;11.90;99.90;;;;;;5052934;28;20193;-66
2021/09/06 04:29:25;;;;;;;5.27;4.80;;;11.80;99.90;;;;;;5053172;28;20560;-68
2021/09/06 04:31:51;;;;;;;5.70;5.10;;;11.80;99.90;;;;;;5052086;28;20165;-67
2021/09/06 04:34:17;;;;;;;6.20;5.40;;;11.80;99.90;;;;;;5053273;28;20260;-68
2021/09/06 04:36:43;;;;;;;5.83;5.20;;;11.80;99.90;;;;;;5058580;28;20503;-67
2021/09/06 04:39:09;;;;;;;6.20;5.60;;;11.80;99.90;;;;;;5073576;28;20197;-66
2021/09/06 04:41:34;;;;;;;7.60;5.40;;;11.90;99.90;;;;;;5073066;28;20219;-66
2021/09/06 04:44:00;;;;;;;4.97;4.50;;;11.80;99.90;;;;;;5073222;28;20202;-68
2021/09/06 04:46:26;;;;;;;5.87;5.00;;;11.80;99.90;;;;;;5073226;28;20251;-66
2021/09/06 04:48:52;;;;;;;4.77;4.40;;;11.80;99.90;;;;;;5072642;28;20548;-68
2021/09/06 04:51:17;;;;;;;6.97;4.80;;;11.80;99.90;;;;;;5068219;28;20609;-66
2021/09/06 04:53:46;;;;;;;4.97;4.47;;;11.80;99.90;;;;;;5053914;28;20177;-67
2021/09/06 04:56:15;;;;;;;6.07;5.47;;;11.70;99.90;;;;;;5057097;28;20194;-66
2021/09/06 04:58:41;;;;;;;6.22;5.53;;;11.70;99.90;;;;;;5055419;28;20695;-68
2021/09/06 05:01:07;;;;;;;6.33;5.73;;;11.70;99.90;;;;;;5057347;28;20177;-66
2021/09/06 05:03:33;;;;;;;9.23;6.95;;;11.70;99.90;;;;;;5056811;28;21032;-69
2021/09/06 05:05:59;;;;;;;5.03;4.60;;;11.80;99.90;;;;;;5071751;28;20261;-66
2021/09/06 05:08:27;;;;;;;6.18;5.28;;;11.90;99.90;;;;;;5076458;28;20607;-68
2021/09/06 05:10:54;;;;;;;5.90;5.50;;;11.90;99.90;;;;;;5072638;28;20166;-67
2021/09/06 05:13:20;;;;;;;6.78;5.30;;;12.10;99.90;;;;;;5067329;28;20892;-67
2021/09/06 05:15:49;;;;;;;8.43;7.30;;;12.10;99.90;;;;;;5076940;28;20537;-68
2021/09/06 05:18:14;;;;;;;5.70;5.20;;;12.30;99.90;;;;;;5057403;28;20270;-67
2021/09/06 05:20:40;;;;;;;9.70;6.50;;;12.40;99.90;;;;;;5056672;28;20487;-68
2021/09/06 05:23:07;;;;;;;7.23;5.97;;;12.50;99.90;;;;;;5056714;28;20174;-67
2021/09/06 05:25:33;;;;;;;5.53;5.03;;;12.60;99.90;;;;;;5056648;28;20209;-68
2021/09/06 05:27:59;;;;;;;8.27;7.50;;;12.60;99.90;;;;;;5054721;28;21066;-68
2021/09/06 05:30:25;;;;;;;8.00;5.27;;;12.50;99.90;;;;;;5073921;28;20516;-68
2021/09/06 05:32:51;;;;;;;7.83;6.43;;;12.50;99.90;;;;;;5076486;28;20259;-66
2021/09/06 05:35:19;;;;;;;8.90;6.10;;;12.50;99.90;;;;;;5076318;28;20804;-68
2021/09/06 05:37:45;;;;;;;6.10;4.97;;;12.50;99.90;;;;;;5075819;28;20565;-67
2021/09/06 05:40:11;;;;;;;6.60;5.37;;;12.50;99.90;;;;;;5073904;28;20512;-68
2021/09/06 05:42:37;;;;;;;8.23;5.68;;;12.60;99.90;;;;;;5056062;28;20262;-66
2021/09/06 05:45:03;;;;;;;6.07;5.57;;;12.60;99.90;;;;;;5056281;28;20252;-69
2021/09/06 05:47:29;;;;;;;5.97;5.37;;;12.70;99.90;;;;;;5055316;28;20167;-65
2021/09/06 05:49:55;;;;;;;8.73;6.17;;;12.70;99.90;;;;;;5056009;28;20936;-69
2021/09/06 05:52:21;;;;;;;5.23;4.73;;;12.80;99.90;;;;;;5060992;28;20265;-66
2021/09/06 05:54:46;;;;;;;6.57;4.70;;;12.90;99.90;;;;;;5070959;28;20237;-69
2021/09/06 05:57:13;;;;;;;4.73;4.27;;;12.90;99.90;;;;;;5069517;28;20421;-69
2021/09/06 05:59:38;;;;;;;6.33;5.17;;;13.20;99.90;;;;;;5069775;28;20203;-70
2021/09/06 06:02:04;;;;;;;5.83;5.33;;;13.40;99.90;;;;;;5064760;28;20424;-66
2021/09/06 06:04:30;;;;;;;6.03;5.43;;;13.50;99.90;;;;;;5066379;28;20185;-69
2021/09/06 06:06:55;;;;;;;4.47;4.07;;;13.60;99.90;;;;;;5067340;28;20205;-69
2021/09/06 06:09:21;;;;;;;8.60;5.50;;;13.70;99.90;;;;;;5069995;28;20321;-66
2021/09/06 06:11:47;;;;;;;4.83;4.40;;;13.80;99.90;;;;;;5077395;28;20178;-67
2021/09/06 06:14:14;;;;;;;5.93;3.90;;;13.90;99.90;;;;;;5074799;28;20413;-67
2021/09/06 06:16:40;;;;;;;5.93;5.33;;;14.10;99.90;;;;;;5070128;28;20184;-68
2021/09/06 06:19:08;;;;;;;5.10;4.50;;;14.10;99.90;;;;;;5062222;28;20448;-67
2021/09/06 06:21:34;;;;;;;6.30;4.67;;;14.20;99.90;;;;;;5059805;28;20180;-66
2021/09/06 06:24:01;;;;;;;5.27;4.30;;;14.30;99.90;;;;;;5066411;28;20433;-71
2021/09/06 06:26:27;;;;;;;5.87;5.23;;;14.40;99.90;;;;;;5066000;28;20306;-65
2021/09/06 06:28:52;;;;;;;5.43;4.73;;;14.50;99.90;;;;;;5069059;28;20473;-68
2021/09/06 06:31:18;;;;;;;5.77;5.17;;;14.50;99.90;;;;;;5060031;28;20232;-67
2021/09/06 06:33:44;;;;;;;4.93;4.53;;;14.70;99.90;;;;;;5081455;28;20251;-68
2021/09/06 06:36:09;;;;;;;4.77;3.93;;;14.90;99.90;;;;;;5065010;28;20198;-67
2021/09/06 06:38:36;;;;;;;7.63;4.50;;;15.10;99.90;;;;;;5056280;28;20255;-68
2021/09/06 06:41:03;;;;;;;5.33;4.00;;;15.30;99.90;;;;;;5069341;28;20252;-75
2021/09/06 06:43:29;;;;;;;4.33;3.93;;;15.40;99.90;;;;;;5067655;28;20431;-68
2021/09/06 06:45:56;;;;;;;6.90;5.10;;;15.50;99.90;;;;;;5069412;28;20483;-68
2021/09/06 06:50:52;;;;;;;5.87;5.27;;;15.70;99.90;;;;;;4978524;28;20489;-69
2021/09/06 06:53:18;;;;;;;5.73;5.27;;;15.90;99.90;;;;;;4988335;28;20446;-69
2021/09/06 06:55:44;;;;;;;5.70;4.87;;;16.20;99.90;;;;;;4987621;28;20216;-68
2021/09/06 06:58:09;;;;;;;4.47;4.07;;;16.50;99.90;;;;;;4977249;28;20665;-69
2021/09/06 07:00:35;;;;;;;4.87;4.23;;;16.80;99.90;;;;;;4970160;28;20178;-68
2021/09/06 07:03:00;;;;;;;5.63;4.50;;;17.00;99.90;;;;;;4953696;28;20189;-67
2021/09/06 07:05:26;;;;;;;3.50;3.20;;;17.30;99.90;;;;;;4971539;28;20193;-67
2021/09/06 07:07:52;;;;;;;4.17;3.83;;;17.60;99.90;;;;;;4974144;28;20227;-67
2021/09/06 07:10:18;;;;;;;4.63;4.00;;;17.90;99.90;;;;;;4975405;28;20207;-67
2021/09/06 07:12:43;;;;;;;3.77;3.47;;;18.30;99.90;;;;;;4974479;28;20188;-67
2021/09/06 07:15:10;;;;;;;4.87;4.27;;;18.60;99.90;;;;;;4973491;28;20446;-67
2021/09/06 07:17:36;;;;;;;5.50;3.83;;;18.80;99.90;;;;;;4971265;28;20184;-67
2021/09/06 07:20:03;;;;;;;4.10;3.70;;;19.00;99.90;;;;;;4970324;28;20462;-71
2021/09/06 07:22:28;;;;;;;3.90;3.60;;;19.20;99.90;;;;;;4968927;28;20502;-66
2021/09/06 07:24:54;;;;;;;4.57;4.17;;;19.40;99.90;;;;;;4970472;28;20519;-68
2021/09/06 07:27:20;;;;;;;5.10;4.63;;;19.40;99.90;;;;;;4970176;28;20184;-67
2021/09/06 07:29:46;;;;;;;4.67;4.27;;;19.40;99.90;;;;;;4969775;28;20346;-68
2021/09/06 07:32:12;;;;;;;4.20;3.90;;;19.40;99.90;;;;;;4967543;28;20483;-67
2021/09/06 07:34:37;;;;;;;5.80;4.90;;;19.30;99.90;;;;;;4975080;28;20554;-68
2021/09/06 07:37:05;;;;;;;4.27;3.93;;;19.30;99.90;;;;;;4970608;28;20655;-72
2021/09/06 07:39:31;;;;;;;4.47;4.00;;;19.10;99.90;;;;;;4972528;28;20566;-67
2021/09/06 07:41:57;;;;;;;6.43;3.60;;;19.00;99.90;;;;;;4975938;28;20408;-67
2021/09/06 07:44:23;;;;;;;5.43;4.80;;;18.90;99.90;;;;;;4973285;28;20430;-68
2021/09/06 07:46:50;;;;;;;4.77;3.97;;;19.00;99.90;;;;;;4974600;28;20349;-68
2021/09/06 07:49:16;;;;;;;4.90;4.03;;;19.30;99.90;;;;;;4973322;28;20215;-69
2021/09/06 07:51:42;;;;;;;3.70;3.40;;;19.90;99.90;;;;;;4959151;28;20423;-69
2021/09/06 07:54:08;;;;;;;4.20;3.53;;;20.50;99.90;;;;;;4992106;28;20430;-70
2021/09/06 07:56:34;;;;;;;5.23;3.57;;;21.30;99.90;;;;;;4972848;28;20526;-69
2021/09/06 07:58:59;;;;;;;4.30;3.90;;;22.20;99.90;;;;;;4969829;28;20200;-69
2021/09/06 08:01:25;;;;;;;3.90;3.60;;;23.40;98.70;;;;;;4969131;28;20190;-68
2021/09/06 08:03:50;;;;;;;4.83;4.33;;;24.70;97.20;;;;;;4971831;28;20192;-69
2021/09/06 08:06:16;;;;;;;5.70;5.10;;;25.90;94.20;;;;;;4951217;28;20180;-69
2021/09/06 08:08:42;;;;;;;4.70;4.20;;;27.10;92.10;;;;;;4974163;28;20208;-70
2021/09/06 08:11:07;;;;;;;5.57;5.10;;;28.20;90.70;;;;;;4980814;28;20192;-70
2021/09/06 08:13:33;;;;;;;5.03;4.63;;;29.20;86.80;;;;;;4956904;28;20179;-71
2021/09/06 08:15:58;;;;;;;5.97;4.67;;;29.90;82.00;;;;;;4971697;28;20200;-69
2021/09/06 08:18:24;;;;;;;4.60;4.30;;;30.40;81.60;;;;;;4973962;28;20558;-69
2021/09/06 08:20:50;;;;;;;6.77;5.07;;;31.00;78.00;;;;;;4974523;28;20175;-70
2021/09/06 08:23:16;;;;;;;5.20;4.80;;;31.60;73.80;;;;;;4972540;28;20542;-70
2021/09/06 08:25:41;;;;;;;5.63;5.23;;;32.10;71.90;;;;;;4972150;28;20180;-70
2021/09/06 08:28:07;;;;;;;5.83;5.30;;;32.40;70.20;;;;;;4968805;28;20622;-75
2021/09/06 08:30:33;;;;;;;5.17;4.80;;;32.60;67.70;;;;;;4970729;28;20226;-69
2021/09/06 08:32:59;;;;;;;5.27;4.87;;;32.80;66.60;;;;;;4970690;28;20271;-69
2021/09/06 08:35:24;;;;;;;9.03;5.13;;;33.20;66.60;;;;;;4970322;28;20746;-69
2021/09/06 08:37:50;;;;;;;5.13;4.73;;;33.50;64.20;;;;;;4970878;28;20180;-69
2021/09/06 08:40:17;;;;;;;5.03;4.63;;;33.70;62.50;;;;;;4970952;28;20274;-69
2021/09/06 08:42:43;;;;;;;4.73;4.43;;;34.10;61.20;;;;;;4976095;28;20432;-70
2021/09/06 08:45:11;;;;;;;5.07;4.67;;;34.10;61.20;;;;;;4971651;28;20429;-69
2021/09/06 08:47:37;;;;;;;5.30;4.80;;;34.10;60.60;;;;;;4966390;28;20207;-70
2021/09/06 08:50:07;;;;;;;6.17;5.63;;;34.20;60.10;;;;;;4974049;28;20530;-69
2021/09/06 08:52:32;;;;;;;5.13;4.73;;;34.40;59.70;;;;;;4974226;28;20849;-69
2021/09/06 08:54:58;;;;;;;5.37;4.90;;;34.50;59.70;;;;;;4974137;28;20581;-69
2021/09/06 08:57:24;;;;;;;5.43;5.03;;;34.60;59.00;;;;;;4969654;28;20196;-69
2021/09/06 08:59:57;;;;;;;5.90;4.80;;;34.70;58.50;;;;;;4970092;28;20226;-69
2021/09/06 09:02:23;;;;;;;5.47;4.97;;;35.00;58.00;;;;;;4976390;28;20241;-71
2021/09/06 09:05:04;;;;;;;5.13;4.73;;;35.50;57.50;;;;;;4969482;28;20439;-70
2021/09/06 09:07:31;;;;;;;7.07;5.40;;;36.00;56.20;;;;;;4975988;28;20419;-71
2021/09/06 09:09:57;;;;;;;7.27;6.73;;;36.30;55.80;;;;;;4971777;28;20446;-69
2021/09/06 09:12:25;;;;;;;5.60;5.00;;;36.40;55.00;;;;;;4969700;28;20510;-70
2021/09/06 09:14:57;;;;;;;5.03;4.63;;;36.70;54.20;;;;;;4973716;28;20462;-69
2021/09/06 09:17:23;;;;;;;4.90;4.60;;;37.00;54.50;;;;;;4973439;28;20443;-70
2021/09/06 09:19:51;;;;;;;5.80;5.30;;;37.30;52.10;;;;;;4984106;28;20809;-69
2021/09/06 09:22:19;;;;;;;4.87;4.50;;;37.80;51.80;;;;;;4973370;28;20428;-72
2021/09/06 09:24:56;;;;;;;4.63;4.33;;;37.80;51.10;;;;;;4972713;28;20462;-69
2021/09/06 09:27:30;;;;;;;5.30;4.90;;;37.80;50.30;;;;;;4972609;28;20952;-69
2021/09/06 09:29:56;;;;;;;5.27;4.97;;;38.10;50.40;;;;;;4973280;28;20440;-69
2021/09/06 09:32:22;;;;;;;5.10;4.80;;;38.30;50.30;;;;;;4968174;28;20434;-69
2021/09/06 09:34:47;;;;;;;4.60;4.30;;;38.50;48.90;;;;;;4972173;28;20176;-71
2021/09/06 09:37:24;;;;;;;4.83;4.53;;;38.50;47.70;;;;;;4953713;28;20204;-70
2021/09/06 09:40:04;;;;;;;4.63;4.33;;;38.50;47.50;;;;;;4979714;28;20228;-71
2021/09/06 09:42:30;;;;;;;5.90;5.03;;;38.50;47.60;;;;;;4957586;29;20423;-71
2021/09/06 09:44:58;;;;;;;5.87;5.33;;;38.30;47.20;;;;;;4977804;28;20419;-70
2021/09/06 09:47:26;;;;;;;4.80;4.50;;;38.00;46.80;;;;;;4967219;28;20299;-70
2021/09/06 09:49:54;;;;;;;5.47;5.07;;;37.80;46.60;;;;;;4972566;28;20489;-70
2021/09/06 09:52:21;;;;;;;5.17;4.77;;;37.50;47.00;;;;;;4976832;28;20469;-68
2021/09/06 09:54:52;;;;;;;4.87;4.43;;;37.30;46.70;;;;;;4974297;28;20428;-69
2021/09/06 09:57:18;;;;;;;4.63;4.33;;;37.40;47.70;;;;;;4973752;28;20448;-69
2021/09/06 09:59:44;;;;;;;5.10;4.70;;;37.50;47.80;;;;;;4974785;28;20487;-69
2021/09/06 10:02:23;;;;;;;5.00;4.60;;;37.60;46.70;;;;;;4972580;28;20451;-76
2021/09/06 10:04:55;;;;;;;5.20;4.83;;;37.70;46.70;;;;;;4966816;28;20667;-71
2021/09/06 10:07:24;;;;;;;5.20;4.80;;;37.30;46.40;;;;;;4990449;28;20430;-70
2021/09/06 10:09:50;;;;;;;5.20;4.80;;;36.80;47.60;;;;;;4989303;28;20520;-72
2021/09/06 10:12:30;;;;;;;5.17;4.77;;;36.30;48.10;;;;;;4994540;28;20444;-70
2021/09/06 10:15:00;;;;;;;5.07;4.63;;;36.50;48.40;;;;;;4967571;28;20849;-69
2021/09/06 10:17:34;;;;;;;4.57;4.23;;;36.70;47.20;;;;;;4973010;28;20427;-70
2021/09/06 10:20:22;;;;;;;5.40;5.00;;;36.50;47.10;;;;;;4973260;28;20493;-71
2021/09/06 10:23:07;;;;;;;5.20;4.77;;;36.10;47.20;;;;;;4959127;28;20460;-71
2021/09/06 10:25:35;;;;;;;5.60;5.10;;;35.90;46.50;;;;;;4978096;28;20794;-70
2021/09/06 10:28:05;;;;;;;6.43;4.60;;;35.60;47.00;;;;;;4986009;28;20426;-71
2021/09/06 10:30:41;;;;;;;6.87;6.17;;;35.60;47.30;;;;;;4975347;28;20466;-72
2021/09/06 10:33:29;;;;;;;5.63;5.17;;;35.80;47.90;;;;;;4979182;28;20399;-71
2021/09/06 10:36:19;;;;;;;18.97;4.93;;;35.90;48.40;;;;;;4993232;28;20533;-74
2021/09/06 10:38:49;;;;;;;4.93;4.53;;;35.50;47.80;;;;;;4995802;28;20416;-72
2021/09/06 10:41:17;;;;;;;5.67;5.20;;;35.10;48.40;;;;;;4974241;28;20914;-72
2021/09/06 10:43:54;;;;;;;4.97;4.50;;;34.80;48.70;;;;;;4984114;28;20489;-70
2021/09/06 10:46:26;;;;;;;5.20;4.70;;;34.50;49.10;;;;;;4981974;28;20505;-71
2021/09/06 10:48:52;;;;;;;4.93;4.53;;;34.10;49.90;;;;;;4992119;28;20462;-70
2021/09/06 10:51:26;;;;;;;5.40;5.00;;;34.00;50.20;;;;;;4991101;28;20443;-72
2021/09/06 10:53:59;;;;;;;5.03;4.63;;;34.00;50.20;;;;;;4995761;28;20789;-71
2021/09/06 10:56:28;;;;;;;4.67;4.33;;;33.90;50.70;;;;;;4995690;28;20393;-72
2021/09/06 10:58:57;;;;;;;5.50;5.00;;;33.60;50.20;;;;;;4978550;28;20505;-72
2021/09/06 11:01:25;;;;;;;5.90;5.30;;;33.20;50.70;;;;;;4988489;28;20761;-70
2021/09/06 11:03:52;;;;;;;5.87;4.77;;;32.60;50.80;;;;;;4995915;28;20407;-72
2021/09/06 11:06:20;;;;;;;5.03;4.60;;;32.00;51.40;;;;;;4995367;28;20414;-71
2021/09/06 11:08:46;;;;;;;5.40;4.90;;;31.50;52.50;;;;;;4975422;28;20502;-71
2021/09/06 11:11:12;;;;;;;5.33;4.83;;;31.00;53.20;;;;;;4958565;28;20416;-72
2021/09/06 11:13:39;;;;;;;5.30;4.87;;;30.60;54.00;;;;;;4981247;28;20174;-71
2021/09/06 11:16:07;;;;;;;4.53;4.23;;;30.10;55.20;;;;;;4976868;28;20398;-73
2021/09/06 11:18:42;;;;;;;4.67;4.27;;;29.30;55.70;;;;;;4975495;28;20755;-71
2021/09/06 11:21:08;;;;;;;4.70;4.20;;;28.80;56.60;;;;;;4975881;28;20776;-74
2021/09/06 11:23:40;;;;;;;5.03;4.60;;;28.30;57.70;;;;;;4975711;28;20381;-71
2021/09/06 11:26:07;;;;;;;4.63;4.17;;;27.90;58.50;;;;;;4975641;28;20398;-71
2021/09/06 11:28:34;;;;;;;4.53;4.13;;;27.60;58.80;;;;;;4978640;28;20435;-72
2021/09/06 11:31:00;;;;;;;5.57;4.27;;;27.40;59.30;;;;;;4986714;28;20796;-72
2021/09/06 11:33:28;;;;;;;4.37;3.97;;;27.20;59.60;;;;;;4975147;28;20741;-74
2021/09/06 11:35:54;;;;;;;4.37;3.97;;;27.10;63.20;;;;;;4989103;28;20415;-72
2021/09/06 11:38:20;;;;;;;5.50;4.50;;;27.10;61.30;;;;;;4994413;28;20918;-68
2021/09/06 11:40:54;;;;;;;4.50;4.20;;;27.10;61.20;;;;;;4977391;28;20550;-69
2021/09/06 11:43:22;;;;;;;4.30;3.90;;;27.10;61.10;;;;;;4978678;28;20187;-68
2021/09/06 11:45:49;;;;;;;5.50;4.50;;;27.00;60.40;;;;;;4975252;28;20390;-69
2021/09/06 11:48:15;;;;;;;4.67;4.27;;;26.80;62.00;;;;;;4974554;28;20787;-70
2021/09/06 11:50:42;;;;;;;4.77;4.37;;;26.80;63.40;;;;;;4974967;28;20534;-72
2021/09/06 11:53:10;;;;;;;5.70;4.00;;;26.70;62.80;;;;;;4988180;28;20183;-71
2021/09/06 11:55:37;;;;;;;6.37;4.00;;;26.70;63.50;;;;;;4994701;28;20439;-70
2021/09/06 11:58:12;;;;;;;5.67;4.00;;;26.60;62.90;;;;;;4993879;28;20492;-71
2021/09/06 12:00:41;;;;;;;4.67;4.10;;;26.60;63.80;;;;;;4994468;28;20493;-71
2021/09/06 12:03:10;;;;;;;5.80;4.07;;;26.60;65.20;;;;;;4992008;28;20382;-71
2021/09/06 12:05:48;;;;;;;8.30;4.83;;;26.60;64.70;;;;;;4974745;28;20428;-70
2021/09/06 12:08:15;;;;;;;4.80;3.43;;;26.60;64.70;;;;;;4964739;28;20497;-70
2021/09/06 12:10:46;;;;;;;4.67;4.27;;;26.50;64.00;;;;;;4957499;28;20503;-70
2021/09/06 12:13:21;;;;;;;4.60;4.20;;;26.50;65.90;;;;;;4991619;28;20389;-70
2021/09/06 12:16:01;;;;;;;4.30;3.70;;;26.60;65.10;;;;;;4994373;28;20378;-72
2021/09/06 12:18:53;;;;;;;4.10;3.67;;;26.70;64.80;;;;;;4993768;28;20778;-69
2021/09/06 12:21:19;;;;;;;4.20;3.80;;;26.80;62.00;;;;;;4990943;28;20401;-71
2021/09/06 12:23:49;;;;;;;4.40;3.80;;;26.80;60.90;;;;;;4993175;28;20423;-71
2021/09/06 12:26:17;;;;;;;4.20;3.80;;;26.60;61.40;;;;;;4994178;28;20405;-71
2021/09/06 12:28:49;;;;;;;5.50;4.20;;;26.60;62.30;;;;;;4993516;28;20897;-71
2021/09/06 12:31:20;;;;;;;4.30;3.90;;;26.50;62.80;;;;;;4977199;28;20405;-72
2021/09/06 12:33:46;;;;;;;4.93;3.90;;;26.50;64.90;;;;;;4974595;28;20450;-70
2021/09/06 12:36:13;;;;;;;4.40;4.00;;;26.50;63.90;;;;;;4957014;28;20797;-72
2021/09/06 12:38:38;;;;;;;4.47;4.07;;;26.50;64.60;;;;;;4974045;28;20914;-69
2021/09/06 12:41:04;;;;;;;5.13;4.30;;;26.50;64.20;;;;;;4957263;28;20482;-71
2021/09/06 12:43:30;;;;;;;4.10;3.77;;;26.50;63.20;;;;;;4992602;28;20180;-71
2021/09/06 12:45:55;;;;;;;5.00;4.50;;;26.60;62.00;;;;;;4993957;28;20171;-71
2021/09/06 12:48:25;;;;;;;5.23;4.47;;;26.60;62.40;;;;;;4993244;28;20207;-69